Time;durP1;ratioP1;P1;durP2;ratioP2;P2;SDS_P1;SDS_P2;PMS_P1;PMS_P2;Temp;Humidity;BMP_temperature;BMP_pressure;BME280_temperature;BME280_humidity;BME280_pressure;Samples;Min_cycle;Max_cycle;Signal;HPM_P1;HPM_P2
2021/04/20 00:02:03;;;;;;;13.85;9.07;;;;;;;28.55;20.27;97953.88;5053561;28;20132;-83
2021/04/20 00:04:29;;;;;;;13.85;7.93;;;;;;;28.55;20.31;97953.88;5049856;28;20029;-83
2021/04/20 00:06:55;;;;;;;16.33;9.32;;;;;;;28.59;20.44;97948.13;5042328;28;20072;-83
2021/04/20 00:09:22;;;;;;;17.35;10.40;;;;;;;28.68;20.27;97956.63;5046451;28;20033;-83
2021/04/20 00:11:48;;;;;;;14.00;9.13;;;;;;;28.53;20.20;97950.75;5049969;28;20036;-83
2021/04/20 00:14:14;;;;;;;13.70;9.05;;;;;;;28.48;20.57;97947.75;5046191;28;20439;-83
2021/04/20 00:16:40;;;;;;;16.48;9.32;;;;;;;28.36;20.46;97948.66;5038968;28;20056;-83
2021/04/20 00:19:07;;;;;;;18.23;10.07;;;;;;;28.31;20.61;97946.47;5040507;28;20037;-83
2021/04/20 00:21:34;;;;;;;13.48;8.60;;;;;;;28.50;20.33;97950.88;5049109;28;20505;-83
2021/04/20 00:24:01;;;;;;;14.10;8.85;;;;;;;28.36;20.49;97948.66;5050905;28;20029;-83
2021/04/20 00:26:27;;;;;;;13.10;7.88;;;;;;;28.39;20.63;97953.38;5043218;28;20025;-83
2021/04/20 00:28:53;;;;;;;13.35;8.05;;;;;;;28.58;20.23;97949.34;5041519;28;20466;-83
2021/04/20 00:31:20;;;;;;;11.93;8.07;;;;;;;28.55;20.17;97953.09;5049620;28;20041;-83
2021/04/20 00:33:46;;;;;;;14.98;8.63;;;;;;;28.72;20.09;97954.44;5048444;28;20037;-83
2021/04/20 00:36:12;;;;;;;11.52;7.47;;;;;;;28.97;19.82;97950.50;5044178;28;20045;-83
2021/04/20 00:38:39;;;;;;;12.93;8.18;;;;;;;29.14;19.78;97958.22;5049286;28;20530;-83
2021/04/20 00:41:12;;;;;;;15.95;8.75;;;;;;;29.15;19.63;97948.47;5048010;28;20088;-83
2021/04/20 00:43:41;;;;;;;15.23;9.27;;;;;;;29.00;20.03;97943.91;5041525;28;20041;-83
2021/04/20 00:46:10;;;;;;;11.88;7.50;;;;;;;28.77;20.14;97950.19;5044747;28;20029;-83
2021/04/20 00:48:36;;;;;;;10.73;6.72;;;;;;;28.65;20.41;97940.59;5048416;28;20025;-83
2021/04/20 00:51:03;;;;;;;12.00;7.95;;;;;;;28.78;20.15;97944.06;5050562;28;20037;-83
2021/04/20 00:53:29;;;;;;;14.68;8.75;;;;;;;28.89;19.93;97949.25;5048748;28;20040;-83
2021/04/20 00:55:56;;;;;;;13.95;8.48;;;;;;;29.06;19.99;97942.81;5042555;28;20041;-83
2021/04/20 00:58:22;;;;;;;11.60;8.05;;;;;;;29.13;19.73;97934.03;5041152;28;20037;-83
2021/04/20 01:00:50;;;;;;;16.17;9.68;;;;;;;29.20;19.55;97933.72;5040975;28;20104;-83
2021/04/20 01:03:16;;;;;;;17.95;10.65;;;;;;;29.27;19.60;97932.63;5043808;28;20056;-83
2021/04/20 01:05:43;;;;;;;17.27;10.18;;;;;;;29.35;19.63;97931.84;5044564;28;20025;-83
2021/04/20 01:08:14;;;;;;;18.92;10.75;;;;;;;29.18;19.49;97930.59;5045001;28;20056;-83
2021/04/20 01:10:49;;;;;;;21.73;11.70;;;;;;;28.67;20.24;97923.97;5041894;28;20486;-83
2021/04/20 01:13:15;;;;;;;23.58;12.40;;;;;;;28.25;20.79;97928.53;5050123;28;20036;-83
2021/04/20 01:15:47;;;;;;;23.08;12.23;;;;;;;27.58;21.48;97923.53;5043538;28;20017;-83
2021/04/20 01:18:25;;;;;;;23.30;11.50;;;;;;;27.09;21.99;97926.16;5043694;28;20128;-83
2021/04/20 01:20:54;;;;;;;18.60;10.45;;;;;;;27.20;22.15;97929.38;5041092;28;20398;-83
2021/04/20 01:23:30;;;;;;;18.70;10.65;;;;;;;27.33;21.95;97927.25;5044587;28;20032;-83
2021/04/20 01:25:57;;;;;;;22.45;11.73;;;;;;;27.70;21.30;97931.09;5040998;28;20059;-83
2021/04/20 01:28:24;;;;;;;24.55;13.18;;;;;;;27.79;21.11;97930.38;5050504;28;20552;-83
2021/04/20 01:30:50;;;;;;;23.00;12.55;;;;;;;27.66;21.39;97927.66;5043251;28;20116;-83
2021/04/20 01:33:16;;;;;;;24.10;12.85;;;;;;;27.30;21.78;97924.59;5043413;28;20052;-83
2021/04/20 01:35:43;;;;;;;25.45;13.18;;;;;;;27.17;21.92;97918.22;5041231;28;20094;-83
2021/04/20 01:38:09;;;;;;;27.08;14.25;;;;;;;27.16;21.86;97917.47;5046015;28;20033;-83
2021/04/20 01:40:35;;;;;;;28.90;13.98;;;;;;;27.18;22.11;97928.25;5048434;28;20025;-83
2021/04/20 01:43:02;;;;;;;26.83;14.02;;;;;;;27.19;21.90;97927.03;5048144;28;20029;-83
2021/04/20 01:45:30;;;;;;;25.60;14.75;;;;;;;27.14;21.87;97930.44;5038943;28;20041;-83
2021/04/20 01:47:57;;;;;;;27.25;13.98;;;;;;;27.09;22.02;97931.81;5044416;28;20105;-83
2021/04/20 01:50:24;;;;;;;22.33;12.05;;;;;;;26.66;22.58;97926.88;5042859;28;20033;-83
2021/04/20 01:52:51;;;;;;;28.98;13.02;;;;;;;26.80;22.57;97936.06;5040214;28;20045;-83
2021/04/20 01:55:17;;;;;;;26.08;13.75;;;;;;;26.86;22.58;97928.63;5045818;28;20083;-83
2021/04/20 01:57:46;;;;;;;25.10;13.32;;;;;;;27.11;22.14;97934.16;5040684;28;20091;-83
2021/04/20 02:00:16;;;;;;;27.10;12.73;;;;;;;27.31;22.01;97934.59;5038205;28;20030;-83
2021/04/20 02:02:43;;;;;;;24.58;13.15;;;;;;;27.30;21.98;97925.38;5042487;28;20512;-83
2021/04/20 02:05:10;;;;;;;28.23;14.50;;;;;;;27.17;22.18;97933.09;5041648;28;20364;-83
2021/04/20 02:07:37;;;;;;;28.02;14.27;;;;;;;27.52;21.51;97931.00;5049275;28;20067;-83
2021/04/20 02:10:07;;;;;;;30.15;15.13;;;;;;;27.86;21.13;97930.09;5045311;28;20037;-83
2021/04/20 02:12:36;;;;;;;27.33;12.80;;;;;;;28.20;20.81;97929.16;5038814;28;20065;-83
2021/04/20 02:15:09;;;;;;;24.63;13.00;;;;;;;28.52;20.44;97937.09;5041807;28;20370;-83
2021/04/20 02:17:36;;;;;;;30.95;15.85;;;;;;;28.73;19.98;97927.72;5039383;28;20033;-83
2021/04/20 02:20:07;;;;;;;29.75;15.52;;;;;;;28.73;20.08;97924.91;5036081;28;20037;-83
2021/04/20 02:22:37;;;;;;;;;;;;;;;28.59;20.35;97931.19;5041372;28;20025;-83
2021/04/20 02:25:12;;;;;;;25.50;13.57;;;;;;;28.72;20.01;97929.78;5044052;28;19956;-83
2021/04/20 02:27:39;;;;;;;27.63;13.23;;;;;;;28.94;19.78;97926.78;5043544;28;20036;-83
2021/04/20 02:30:08;;;;;;;28.85;14.23;;;;;;;28.94;20.06;97918.31;5040452;28;20048;-83
2021/04/20 02:32:36;;;;;;;32.15;15.65;;;;;;;28.91;19.99;97924.13;5043325;28;20437;-83
2021/04/20 02:35:05;;;;;;;30.48;15.18;;;;;;;28.89;19.96;97926.66;5038525;28;20044;-83
2021/04/20 02:37:34;;;;;;;26.10;13.55;;;;;;;28.11;20.64;97917.84;5047667;28;20044;-83
2021/04/20 02:40:00;;;;;;;28.83;14.70;;;;;;;27.45;21.58;97920.00;5042018;28;20090;-83
2021/04/20 02:42:26;;;;;;;30.38;14.93;;;;;;;27.33;21.70;97921.63;5046503;28;20402;-83
2021/04/20 02:44:53;;;;;;;28.80;15.20;;;;;;;27.31;21.78;97920.50;5042875;28;20029;-83
2021/04/20 02:47:21;;;;;;;27.00;13.77;;;;;;;27.63;21.12;97920.13;5047359;28;20092;-83
2021/04/20 02:49:47;;;;;;;27.33;14.90;;;;;;;28.15;20.75;97922.09;5036610;28;20033;-83
2021/04/20 02:52:14;;;;;;;31.00;16.15;;;;;;;28.39;20.43;97920.28;5037437;28;20040;-83
2021/04/20 02:54:40;;;;;;;28.55;14.90;;;;;;;28.46;20.27;97927.66;5042936;28;20108;-83
2021/04/20 02:57:08;;;;;;;29.10;15.43;;;;;;;28.41;20.18;97925.44;5046008;28;20045;-83
2021/04/20 02:59:37;;;;;;;29.33;15.07;;;;;;;28.31;20.41;97921.81;5060760;28;20080;-83
2021/04/20 03:02:04;;;;;;;28.98;15.40;;;;;;;28.47;20.29;97923.59;5043446;28;20021;-83
2021/04/20 03:04:31;;;;;;;23.85;12.38;;;;;;;28.68;19.81;97923.47;5039442;28;20095;-83
2021/04/20 03:06:58;;;;;;;29.55;14.70;;;;;;;28.83;19.77;97918.00;5041425;28;20057;-83
2021/04/20 03:09:24;;;;;;;28.60;14.32;;;;;;;28.87;19.45;97915.03;5045764;28;20193;-83
2021/04/20 03:11:54;;;;;;;29.10;14.98;;;;;;;28.87;19.49;97909.38;5037945;28;20041;-83
2021/04/20 03:14:22;;;;;;;25.90;13.88;;;;;;;28.98;19.64;97921.00;5039408;28;20037;-83
2021/04/20 03:16:48;;;;;;;25.42;13.95;;;;;;;29.10;19.32;97918.00;5039446;28;20087;-83
2021/04/20 03:19:14;;;;;;;29.48;15.73;;;;;;;29.14;19.14;97910.16;5039190;28;20029;-83
2021/04/20 03:21:42;;;;;;;27.58;15.32;;;;;;;29.14;19.20;97912.97;5040687;28;20033;-83
2021/04/20 03:24:18;;;;;;;27.67;14.68;;;;;;;29.11;19.22;97915.97;5037476;28;20123;-83
2021/04/20 03:26:44;;;;;;;31.63;15.82;;;;;;;29.10;19.30;97915.16;5034586;28;20029;-83
2021/04/20 03:29:10;;;;;;;26.35;14.32;;;;;;;29.06;19.30;97913.75;5038300;28;20033;-83
2021/04/20 03:31:38;;;;;;;28.95;15.45;;;;;;;28.72;19.64;97912.84;5040480;28;20139;-83
2021/04/20 03:34:22;;;;;;;27.27;14.45;;;;;;;28.55;19.89;97917.16;5038149;28;20063;-83
2021/04/20 03:37:19;;;;;;;29.85;14.98;;;;;;;28.46;19.92;97914.34;5041825;28;20484;-83
2021/04/20 03:39:49;;;;;;;23.50;13.48;;;;;;;28.31;20.22;97906.94;5040158;28;20116;-83
2021/04/20 03:42:26;;;;;;;22.03;12.60;;;;;;;28.33;20.28;97905.22;5037418;28;20498;-83
2021/04/20 03:45:00;;;;;;;26.40;13.32;;;;;;;28.40;20.07;97910.53;5038543;28;20033;-83
2021/04/20 03:47:39;;;;;;;17.88;10.32;;;;;;;28.55;19.73;97910.72;5042832;28;20025;-83
2021/04/20 03:50:13;;;;;;;20.90;11.90;;;;;;;28.17;20.33;97907.53;5040923;28;20026;-83
2021/04/20 03:52:43;;;;;;;20.20;11.38;;;;;;;28.06;20.57;97911.56;5040912;28;20060;-83
2021/04/20 03:55:12;;;;;;;20.63;11.43;;;;;;;28.05;20.28;97903.56;5041404;28;20121;-83
2021/04/20 03:57:42;;;;;;;21.30;10.82;;;;;;;27.89;20.48;97900.97;5036175;28;20499;-83
2021/04/20 04:00:12;;;;;;;21.63;10.97;;;;;;;27.75;20.90;97907.19;5039646;28;20033;-83
2021/04/20 04:02:41;;;;;;;18.93;10.60;;;;;;;27.75;20.77;97902.28;5044173;28;20445;-83
2021/04/20 04:05:10;;;;;;;25.63;12.63;;;;;;;28.06;20.55;97905.13;5046096;28;20044;-83
2021/04/20 04:07:38;;;;;;;18.70;11.27;;;;;;;28.32;20.02;97905.66;5041986;28;20033;-83
2021/04/20 04:10:06;;;;;;;21.25;11.63;;;;;;;28.34;20.15;97908.81;5044779;28;20061;-83
2021/04/20 04:12:37;;;;;;;20.73;11.23;;;;;;;28.33;20.07;97908.03;5045199;28;20029;-82
2021/04/20 04:15:07;;;;;;;24.15;12.63;;;;;;;28.04;20.69;97904.81;5033166;28;20032;-83
2021/04/20 04:17:35;;;;;;;26.65;14.98;;;;;;;28.03;20.69;97906.84;5036881;28;20084;-83
2021/04/20 04:20:04;;;;;;;32.97;18.80;;;;;;;28.34;20.42;97905.97;5037073;28;20553;-83
2021/04/20 04:22:37;;;;;;;39.70;23.00;;;;;;;28.63;19.78;97906.38;5038738;28;20091;-83
2021/04/20 04:25:07;;;;;;;30.45;17.20;;;;;;;28.83;19.74;97909.53;5045183;28;20109;-83
2021/04/20 04:27:38;;;;;;;32.05;18.27;;;;;;;28.87;19.71;97907.31;5039315;28;20033;-83
2021/04/20 04:30:09;;;;;;;29.85;17.27;;;;;;;28.88;19.82;97911.72;5047584;28;20037;-83
2021/04/20 04:32:42;;;;;;;30.95;15.98;;;;;;;28.97;19.56;97903.25;5050759;28;20060;-83
2021/04/20 04:35:09;;;;;;;27.73;14.60;;;;;;;29.00;19.48;97901.53;5041051;28;20072;-83
2021/04/20 04:37:37;;;;;;;24.45;14.13;;;;;;;28.59;20.22;97911.41;5048375;28;20041;-83
2021/04/20 04:40:06;;;;;;;26.17;12.73;;;;;;;28.14;20.51;97906.41;5042624;28;20494;-83
2021/04/20 04:42:32;;;;;;;22.55;12.00;;;;;;;27.99;21.00;97911.06;5046058;28;20049;-83
2021/04/20 04:45:02;;;;;;;22.88;12.70;;;;;;;27.98;20.78;97913.06;5039845;28;20040;-83
2021/04/20 04:47:29;;;;;;;22.05;12.10;;;;;;;28.00;20.93;97913.44;5043722;28;20112;-83
2021/04/20 04:50:00;;;;;;;19.48;11.88;;;;;;;27.84;21.35;97913.63;5052374;28;20111;-83
2021/04/20 04:52:29;;;;;;;22.13;12.35;;;;;;;28.15;21.13;97910.78;5047415;28;20078;-83
2021/04/20 04:54:56;;;;;;;27.08;14.85;;;;;;;28.42;20.66;97912.91;5051840;28;20025;-83
2021/04/20 04:57:24;;;;;;;23.92;13.75;;;;;;;28.41;20.55;97911.31;5046838;28;20051;-83
2021/04/20 04:59:52;;;;;;;16.25;10.40;;;;;;;27.85;21.02;97905.94;5050158;28;20105;-83
2021/04/20 05:02:19;;;;;;;23.13;13.45;;;;;;;27.20;21.88;97917.31;5052139;28;20438;-83
2021/04/20 05:04:46;;;;;;;17.42;10.80;;;;;;;27.34;21.79;97903.47;5050761;28;20072;-83
2021/04/20 05:07:12;;;;;;;17.20;10.43;;;;;;;26.77;22.52;97911.66;5050041;28;20037;-83
2021/04/20 05:09:38;;;;;;;19.63;12.23;;;;;;;26.90;22.55;97912.38;5050167;28;20025;-83
2021/04/20 05:12:06;;;;;;;20.70;10.50;;;;;;;26.88;22.49;97920.50;5048807;28;20029;-83
2021/04/20 05:14:32;;;;;;;17.55;9.88;;;;;;;26.94;22.21;97913.81;5051521;28;20546;-83
2021/04/20 05:16:58;;;;;;;17.98;10.88;;;;;;;27.22;22.14;97917.63;5049125;28;20398;-84
2021/04/20 05:19:32;;;;;;;17.13;10.82;;;;;;;27.35;22.17;97919.13;5046689;28;20447;-83
2021/04/20 05:22:00;;;;;;;15.52;9.15;;;;;;;27.04;22.36;97921.13;5045528;28;20071;-85
2021/04/20 05:24:27;;;;;;;17.70;10.23;;;;;;;27.10;22.24;97924.91;5051681;28;20425;-85
2021/04/20 05:26:57;;;;;;;13.45;8.10;;;;;;;26.63;22.79;97919.31;5046092;28;20038;-84
2021/04/20 05:29:24;;;;;;;19.27;11.07;;;;;;;27.05;22.57;97921.91;5044439;28;20066;-86
2021/04/20 05:31:51;;;;;;;15.63;9.10;;;;;;;27.22;22.18;97918.41;5050341;28;20041;-86
2021/04/20 05:34:19;;;;;;;16.63;9.88;;;;;;;27.43;22.25;97922.50;5050137;28;20082;-85
2021/04/20 05:36:47;;;;;;;13.82;8.75;;;;;;;27.52;22.12;97916.91;5047625;28;20501;-84
2021/04/20 05:39:15;;;;;;;15.15;8.98;;;;;;;26.62;22.99;97931.03;5045916;28;20422;-84
2021/04/20 05:41:42;;;;;;;13.45;7.38;;;;;;;26.96;23.09;97933.09;5045856;28;20047;-85
2021/04/20 05:44:11;;;;;;;15.90;9.45;;;;;;;26.94;23.21;97936.38;5049804;28;20025;-86
2021/04/20 05:46:43;;;;;;;14.88;9.30;;;;;;;27.26;22.55;97933.16;5045153;28;20048;-84
2021/04/20 05:49:10;;;;;;;12.20;7.57;;;;;;;27.72;22.04;97945.56;5044462;28;20079;-84
2021/04/20 05:51:40;;;;;;;13.82;8.43;;;;;;;27.89;22.03;97937.66;5045355;28;20120;-84
2021/04/20 05:54:07;;;;;;;13.82;8.20;;;;;;;27.72;21.96;97937.09;5046587;28;20040;-84
2021/04/20 05:56:33;;;;;;;15.50;9.32;;;;;;;26.69;23.15;97942.88;5059360;28;20491;-84
2021/04/20 05:59:00;;;;;;;15.98;8.85;;;;;;;26.87;23.34;97938.66;5047866;28;20037;-84
2021/04/20 06:01:28;;;;;;;13.27;8.07;;;;;;;26.68;23.40;97930.00;5042217;28;20379;-85
2021/04/20 06:03:56;;;;;;;12.75;7.13;;;;;;;26.05;23.44;97923.66;5047006;28;20036;-85
2021/04/20 06:06:25;;;;;;;15.18;8.63;;;;;;;26.62;23.37;97931.84;5046177;28;20037;-85
2021/04/20 06:08:53;;;;;;;13.02;7.25;;;;;;;27.03;23.45;97924.38;5046728;28;20029;-85
2021/04/20 06:11:21;;;;;;;15.23;9.43;;;;;;;28.04;22.50;97931.00;5049776;28;20151;-84
2021/04/20 06:13:48;;;;;;;15.23;9.90;;;;;;;28.70;21.85;97928.69;5047795;28;20033;-86
2021/04/20 06:16:14;;;;;;;16.77;9.23;;;;;;;28.72;21.36;97934.66;5044159;28;20025;-84
2021/04/20 06:18:42;;;;;;;14.93;9.00;;;;;;;28.35;22.02;97936.59;5041274;28;20404;-83
2021/04/20 06:21:09;;;;;;;14.63;9.32;;;;;;;28.62;21.62;97930.22;5037725;28;20033;-83
2021/04/20 06:23:37;;;;;;;15.45;10.23;;;;;;;29.10;21.26;97937.78;5048196;28;20115;-83
2021/04/20 06:26:06;;;;;;;14.85;8.90;;;;;;;29.24;21.09;97936.41;5038493;28;20033;-83
2021/04/20 06:28:36;;;;;;;11.60;7.82;;;;;;;28.50;21.16;97931.91;5045614;28;20041;-83
2021/04/20 06:31:03;;;;;;;13.55;7.93;;;;;;;27.19;22.72;97927.78;5046392;28;20036;-84
2021/04/20 06:33:34;;;;;;;15.18;8.90;;;;;;;26.99;22.96;97935.78;5045638;28;20521;-83
2021/04/20 06:36:18;;;;;;;;;;;;;;;26.74;23.16;97933.84;5044013;28;20057;-84
2021/04/20 06:38:44;;;;;;;15.05;9.35;;;;;;;26.78;23.65;97936.53;5041531;28;19933;-83
2021/04/20 06:41:11;;;;;;;14.70;9.20;;;;;;;27.59;22.44;97936.38;5039807;28;20045;-83
2021/04/20 06:44:02;;;;;;;16.58;9.07;;;;;;;27.47;22.56;97937.25;5036198;28;20493;-83
2021/04/20 06:46:32;;;;;;;15.23;8.95;;;;;;;26.89;23.55;97942.59;5040726;28;20045;-84
2021/04/20 06:49:04;;;;;;;16.57;9.37;;;;;;;26.47;23.84;97944.03;5039291;28;20025;-83
2021/04/20 06:51:37;;;;;;;16.42;9.65;;;;;;;27.14;23.08;97945.28;5037515;28;20029;-83
2021/04/20 06:54:23;;;;;;;15.80;10.30;;;;;;;27.10;23.34;97950.28;5034647;28;20082;-83
2021/04/20 06:56:56;;;;;;;16.33;9.98;;;;;;;25.63;25.14;97947.50;5038373;28;20077;-83
2021/04/20 06:59:43;;;;;;;14.05;9.75;;;;;;;25.03;25.85;97954.84;5040333;28;20409;-83
2021/04/20 07:02:45;;;;;;;16.42;9.48;;;;;;;25.42;24.94;97952.50;5038684;28;20025;-83
2021/04/20 07:05:15;;;;;;;16.52;10.70;;;;;;;25.39;25.31;97947.78;5037407;28;20505;-83
2021/04/20 07:07:53;;;;;;;15.65;9.52;;;;;;;26.83;23.78;97943.63;5055890;28;20041;-84
2021/04/20 07:10:30;;;;;;;15.98;9.43;;;;;;;27.99;22.40;97942.88;5039846;28;20098;-84
2021/04/20 07:12:59;;;;;;;14.55;8.55;;;;;;;28.23;22.02;97942.34;5039580;28;20041;-84
2021/04/20 07:15:27;;;;;;;12.20;7.88;;;;;;;28.54;21.45;97945.91;5040786;28;20040;-83
2021/04/20 07:18:05;;;;;;;18.90;10.10;;;;;;;28.29;21.84;97949.75;5038820;28;20040;-83
2021/04/20 07:20:54;;;;;;;13.60;9.15;;;;;;;27.62;22.58;97945.97;5038407;28;20037;-83
2021/04/20 07:23:43;;;;;;;13.50;8.13;;;;;;;27.08;23.64;97951.97;5037855;28;20040;-83
2021/04/20 07:26:24;;;;;;;14.57;8.95;;;;;;;28.11;22.82;97944.03;5038479;28;20029;-83
2021/04/20 07:29:12;;;;;;;15.98;9.35;;;;;;;28.97;21.36;97951.31;5040648;28;20487;-83
2021/04/20 07:31:51;;;;;;;13.80;8.98;;;;;;;29.66;20.69;97948.59;5043851;28;20062;-83
2021/04/20 07:34:29;;;;;;;11.30;7.25;;;;;;;29.53;20.93;97950.81;5037122;28;20033;-83
2021/04/20 07:37:12;;;;;;;14.15;8.68;;;;;;;29.75;21.17;97945.75;5038142;28;20041;-83
2021/04/20 07:40:03;;;;;;;12.38;7.93;;;;;;;30.16;20.60;97946.25;5038020;28;20057;-84
2021/04/20 07:42:57;;;;;;;13.75;7.45;;;;;;;30.38;20.03;97953.25;5035510;28;20036;-83
2021/04/20 07:45:43;;;;;;;11.60;7.53;;;;;;;30.51;20.20;97947.34;5038010;28;20037;-84
2021/04/20 07:48:16;;;;;;;15.63;9.70;;;;;;;29.10;21.12;97954.75;5041315;28;20041;-84
2021/04/20 07:50:54;;;;;;;13.85;8.00;;;;;;;29.09;21.54;97952.41;5035744;28;20041;-83
2021/04/20 07:53:55;;;;;;;14.88;9.55;;;;;;;28.92;21.21;97945.47;5035951;28;20033;-83
2021/04/20 07:56:30;;;;;;;14.10;8.53;;;;;;;29.52;21.92;97946.44;5037364;28;22929;-84
2021/04/20 07:59:02;;;;;;;15.95;9.60;;;;;;;29.54;21.46;97941.09;5040165;28;20310;-84
2021/04/20 08:01:55;;;;;;;13.38;7.97;;;;;;;29.99;21.03;97932.47;5055378;28;20052;-84
2021/04/20 08:04:52;;;;;;;13.85;8.73;;;;;;;30.39;20.54;97929.31;5040213;28;20033;-83
2021/04/20 08:07:54;;;;;;;14.25;8.55;;;;;;;30.89;20.36;97940.97;5043709;28;20041;-84
2021/04/20 08:10:28;;;;;;;11.52;7.32;;;;;;;31.18;20.14;97932.56;5042798;28;20057;-84
2021/04/20 08:13:15;;;;;;;12.77;7.95;;;;;;;31.60;19.98;97933.09;5059060;28;20053;-83
2021/04/20 08:15:54;;;;;;;16.05;10.52;;;;;;;30.30;20.33;97934.22;5040658;28;20488;-84
2021/04/20 08:18:34;;;;;;;14.95;9.00;;;;;;;30.48;20.45;97937.75;5039236;28;20021;-84
2021/04/20 08:21:04;;;;;;;15.65;9.82;;;;;;;30.41;20.85;97938.09;5043596;28;20557;-84
2021/04/20 08:23:35;;;;;;;14.50;8.63;;;;;;;30.19;21.05;97936.78;5051879;28;20116;-84
2021/04/20 08:26:09;;;;;;;19.42;9.98;;;;;;;29.10;21.62;97942.69;5041094;28;20065;-83
2021/04/20 08:28:57;;;;;;;22.55;13.35;;;;;;;28.29;22.42;97934.81;5045586;28;20036;-83
2021/04/20 08:31:47;;;;;;;14.50;9.55;;;;;;;28.65;22.20;97937.78;5043302;28;20123;-83
2021/04/20 08:34:35;;;;;;;15.37;8.83;;;;;;;29.01;22.45;97934.97;5040465;28;20037;-83
2021/04/20 08:37:01;;;;;;;13.73;8.32;;;;;;;30.12;21.78;97937.94;5046766;28;20036;-83
2021/04/20 08:40:06;;;;;;;13.50;9.15;;;;;;;29.16;21.65;97929.47;5046344;28;20036;-83
2021/04/20 08:42:53;;;;;;;14.35;8.65;;;;;;;29.72;21.19;97931.75;5016507;28;20045;-83
2021/04/20 08:45:40;;;;;;;15.13;9.05;;;;;;;30.43;20.23;97929.94;5045990;28;20037;-83
2021/04/20 08:48:06;;;;;;;13.48;8.23;;;;;;;30.70;20.58;97941.09;5040923;28;20041;-83
2021/04/20 08:50:38;;;;;;;12.98;7.38;;;;;;;30.94;20.32;97931.81;5044582;28;20058;-83
2021/04/20 08:53:28;;;;;;;16.48;9.90;;;;;;;31.42;20.15;97927.59;5041338;28;20064;-83
2021/04/20 08:56:13;;;;;;;12.73;7.65;;;;;;;31.87;19.78;97929.19;5045225;28;20104;-84
2021/04/20 08:58:44;;;;;;;11.55;7.78;;;;;;;31.95;19.77;97930.38;5048112;28;20521;-83
2021/04/20 09:01:48;;;;;;;15.57;10.55;;;;;;;31.37;18.86;97929.06;5046647;28;20037;-83
2021/04/20 09:04:58;;;;;;;17.25;8.90;;;;;;;31.70;19.00;97928.09;5050442;28;20029;-83
2021/04/20 09:07:44;;;;;;;18.67;12.07;;;;;;;30.27;20.05;97918.97;4990604;28;20041;-83
2021/04/20 09:10:36;;;;;;;20.70;13.32;;;;;;;27.35;24.41;97924.00;5041508;28;20131;-84
2021/04/20 09:13:11;;;;;;;;;;;;;;;27.31;23.39;97918.47;5041538;28;20037;-84
2021/04/20 09:15:42;;;;;;;23.83;14.20;;;;;;;25.03;27.06;97933.19;5044975;28;20008;-84
2021/04/20 09:18:14;;;;;;;21.77;14.18;;;;;;;24.70;27.18;97926.03;5047332;28;20478;-84
2021/04/20 09:20:59;;;;;;;25.02;15.13;;;;;;;25.47;25.81;97925.09;5046882;28;20040;-84
2021/04/20 09:23:52;;;;;;;17.27;10.13;;;;;;;28.34;23.60;97914.44;5040801;28;20036;-84
2021/04/20 09:26:55;;;;;;;23.23;13.02;;;;;;;28.49;21.85;97916.22;5037186;28;20035;-84
2021/04/20 09:29:30;;;;;;;13.57;8.30;;;;;;;30.13;21.34;97908.31;5045744;28;20040;-84
2021/04/20 09:31:59;;;;;;;15.77;8.55;;;;;;;31.18;20.06;97902.13;5043375;28;20125;-84
2021/04/20 09:34:34;;;;;;;14.90;9.88;;;;;;;30.72;20.20;97915.88;5046045;28;20755;-84
2021/04/20 09:37:03;;;;;;;16.45;9.20;;;;;;;31.45;20.26;97906.00;5041507;28;20037;-82
2021/04/20 09:39:34;;;;;;;15.77;8.25;;;;;;;31.99;19.47;97906.19;5054024;28;20406;-83
2021/04/20 09:42:04;;;;;;;19.30;11.10;;;;;;;31.99;18.71;97897.69;5051162;28;20398;-84
2021/04/20 09:45:04;;;;;;;17.92;11.18;;;;;;;30.72;20.38;97893.19;5038574;28;20033;-84
2021/04/20 09:47:52;;;;;;;12.77;8.52;;;;;;;31.56;19.50;97900.50;5042450;28;20028;-83
2021/04/20 09:50:31;;;;;;;11.95;7.00;;;;;;;31.90;19.46;97894.13;5045955;28;20064;-83
2021/04/20 09:53:25;;;;;;;11.52;6.80;;;;;;;32.05;19.23;97887.16;5046078;28;20124;-84
2021/04/20 09:56:01;;;;;;;9.20;6.50;;;;;;;32.61;18.18;97899.34;5049357;28;20032;-84
2021/04/20 09:58:29;;;;;;;9.32;6.15;;;;;;;32.68;18.70;97887.56;5048497;28;20049;-83
2021/04/20 10:01:01;;;;;;;9.20;6.13;;;;;;;32.67;17.97;97883.91;5046547;28;20036;-84
2021/04/20 10:04:04;;;;;;;9.45;6.05;;;;;;;32.94;18.40;97885.56;5040323;28;20037;-84
2021/04/20 10:07:04;;;;;;;7.68;5.05;;;;;;;33.20;18.42;97883.56;5044181;28;20560;-83
2021/04/20 10:09:58;;;;;;;9.68;5.65;;;;;;;32.05;18.31;97875.03;5043019;28;20065;-84
2021/04/20 10:12:55;;;;;;;12.13;8.05;;;;;;;30.26;20.38;97871.28;5042098;28;20116;-84
2021/04/20 10:15:34;;;;;;;7.60;4.90;;;;;;;31.62;19.61;97876.66;5060146;28;20030;-84
2021/04/20 10:18:15;;;;;;;10.10;6.03;;;;;;;31.39;19.28;97874.66;5041171;28;20367;-84
2021/04/20 10:20:58;;;;;;;8.55;6.35;;;;;;;28.93;19.56;97876.41;5047067;28;20048;-84
2021/04/20 10:23:51;;;;;;;5.97;4.25;;;;;;;29.39;20.29;97864.56;5054146;28;20100;-81
2021/04/20 10:26:22;;;;;;;5.82;5.00;;;;;;;30.67;19.44;97865.50;5039789;28;20092;-81
2021/04/20 10:29:00;;;;;;;;;;;;;;;31.55;16.04;97864.91;5048822;28;20082;-82
2021/04/20 10:31:39;;;;;;;8.88;5.97;;;;;;;29.69;18.24;97867.59;5043400;28;20298;-81
2021/04/20 10:34:09;;;;;;;13.55;8.13;;;;;;;27.07;21.22;97875.09;5040766;28;20053;-82
2021/04/20 10:36:36;;;;;;;11.23;7.35;;;;;;;26.94;23.31;97865.13;5035774;28;20044;-82
2021/04/20 10:39:08;;;;;;;10.20;6.57;;;;;;;26.64;22.12;97873.03;5042343;28;20514;-83
2021/04/20 10:41:36;;;;;;;9.60;6.63;;;;;;;26.30;22.62;97875.81;5044025;28;20401;-82
2021/04/20 10:44:14;;;;;;;6.45;3.88;;;;;;;28.54;20.44;97872.44;5045018;28;20535;-82
2021/04/20 10:46:42;;;;;;;7.78;4.93;;;;;;;27.15;21.27;97870.78;5045179;28;20032;-82
2021/04/20 10:49:14;;;;;;;8.65;5.05;;;;;;;27.32;20.33;97876.97;5042256;28;20082;-83
2021/04/20 10:51:41;;;;;;;6.57;4.38;;;;;;;28.23;19.44;97881.03;5043895;28;22564;-82
2021/04/20 10:54:10;;;;;;;5.57;3.72;;;;;;;28.45;19.64;97872.44;5046649;28;20037;-83
2021/04/20 10:56:38;;;;;;;9.95;6.63;;;;;;;26.59;23.30;97896.13;5039257;28;20505;-83
2021/04/20 10:59:08;;;;;;;11.40;7.38;;;;;;;24.91;25.23;97888.97;5043460;28;20514;-82
2021/04/20 11:01:36;;;;;;;14.35;7.18;;;;;;;24.05;26.82;97886.81;5040008;28;20030;-82
2021/04/20 11:04:05;;;;;;;11.45;7.40;;;;;;;22.94;27.41;97885.31;5036235;28;20025;-82
2021/04/20 11:06:50;;;;;;;7.40;5.18;;;;;;;22.43;28.67;97881.84;5036345;28;20034;-82
2021/04/20 11:09:16;;;;;;;9.10;5.00;;;;;;;23.32;27.64;97881.69;5040783;28;20040;-82
2021/04/20 11:11:47;;;;;;;6.32;4.45;;;;;;;23.43;26.98;97884.28;5040240;28;20032;-81
2021/04/20 11:14:34;;;;;;;6.00;3.75;;;;;;;24.23;25.67;97875.16;5042201;28;20025;-82
2021/04/20 11:17:00;;;;;;;6.72;4.07;;;;;;;24.73;25.18;97869.78;5042142;28;20479;-82
2021/04/20 11:19:27;;;;;;;5.07;3.38;;;;;;;24.93;24.55;97861.22;5038407;28;20132;-82
2021/04/20 11:21:53;;;;;;;4.70;3.72;;;;;;;24.94;24.36;97856.41;5045453;28;21378;-81
2021/04/20 11:24:25;;;;;;;4.45;3.15;;;;;;;25.05;25.56;97866.09;5037839;28;20491;-82
2021/04/20 11:26:59;;;;;;;4.38;3.15;;;;;;;25.72;22.61;97863.28;5043126;28;20490;-82
2021/04/20 11:29:42;;;;;;;6.80;3.63;;;;;;;25.89;23.59;97848.63;5045038;28;20049;-81
2021/04/20 11:32:11;;;;;;;5.25;3.65;;;;;;;25.54;24.06;97852.59;5044334;28;20033;-82
2021/04/20 11:34:40;;;;;;;5.70;4.20;;;;;;;26.37;22.80;97850.22;5038673;28;20132;-81
2021/04/20 11:37:11;;;;;;;6.43;3.83;;;;;;;27.50;21.09;97836.84;5038431;28;20810;-81
2021/04/20 11:40:01;;;;;;;4.97;3.75;;;;;;;27.65;21.83;97829.38;5044168;28;20180;-82
2021/04/20 11:42:38;;;;;;;7.28;4.63;;;;;;;27.61;20.71;97835.16;5036414;28;20033;-81
2021/04/20 11:45:13;;;;;;;4.47;3.28;;;;;;;28.95;20.57;97835.09;5036517;28;20037;-81
2021/04/20 11:47:55;;;;;;;4.53;3.60;;;;;;;28.46;19.33;97843.72;5037769;28;20033;-81
2021/04/20 11:50:22;;;;;;;4.55;3.17;;;;;;;28.20;20.05;97848.06;5036746;28;20034;-81
2021/04/20 11:52:57;;;;;;;5.18;2.80;;;;;;;28.85;19.01;97842.00;5040391;28;20029;-81